Time;durP1;ratioP1;P1;durP2;ratioP2;P2;SDS_P1;SDS_P2;PMS_P1;PMS_P2;Temp;Humidity;BMP_temperature;BMP_pressure;BME280_temperature;BME280_humidity;BME280_pressure;Samples;Min_cycle;Max_cycle;Signal;HPM_P1;HPM_P2
2023/09/21 00:01:23;;;;;;;17.10;6.80;;;;;;;15.56;78.03;101353.52;107547;1256;98376;-62
2023/09/21 00:03:53;;;;;;;9.60;6.20;;;;;;;15.53;77.91;101352.83;107601;1254;111203;-64
2023/09/21 00:06:22;;;;;;;12.90;7.00;;;;;;;15.51;78.02;101353.75;107569;1256;109750;-64
2023/09/21 00:08:52;;;;;;;11.40;6.20;;;;;;;15.50;78.13;101348.99;107622;1253;107795;-64
2023/09/21 00:11:20;;;;;;;17.30;7.00;;;;;;;15.48;78.03;101344.61;107582;1254;97846;-63
2023/09/21 00:13:49;;;;;;;14.00;6.70;;;;;;;15.47;78.12;101344.79;107573;1254;97829;-62
2023/09/21 00:16:18;;;;;;;21.70;6.80;;;;;;;15.45;78.10;101345.15;107561;1255;111105;-65
2023/09/21 00:18:47;;;;;;;19.50;6.50;;;;;;;15.43;78.06;101342.42;107566;1254;109408;-63
2023/09/21 00:21:16;;;;;;;14.10;6.50;;;;;;;15.43;78.24;101345.34;107578;1254;108259;-63
2023/09/21 00:23:47;;;;;;;13.40;6.90;;;;;;;15.43;78.33;101341.91;107592;1254;97832;-62
2023/09/21 00:26:16;;;;;;;15.20;7.40;;;;;;;15.43;78.35;101337.27;107602;1251;97815;-62
2023/09/21 00:28:47;;;;;;;10.50;7.00;;;;;;;15.42;78.19;101336.27;107534;1254;112460;-62
2023/09/21 00:31:16;;;;;;;14.30;7.00;;;;;;;15.40;78.18;101336.66;107594;1256;109811;-62
2023/09/21 00:33:45;;;;;;;19.00;6.70;;;;;;;15.37;78.26;101336.05;107590;1254;107317;-64
2023/09/21 00:36:17;;;;;;;11.50;6.70;;;;;;;15.33;78.23;101335.14;107584;1256;97934;-63
2023/09/21 00:38:46;;;;;;;8.70;5.20;;;;;;;15.29;78.10;101335.67;107614;1253;98478;-63
2023/09/21 00:41:18;;;;;;;18.20;6.80;;;;;;;15.25;78.19;101336.96;107511;1254;112727;-63
2023/09/21 00:43:47;;;;;;;17.10;6.70;;;;;;;15.23;78.43;101338.73;107587;1256;109467;-63
2023/09/21 00:46:18;;;;;;;15.40;6.00;;;;;;;15.18;78.55;101339.17;107587;1254;108217;-63
2023/09/21 00:48:46;;;;;;;11.90;6.20;;;;;;;15.11;78.63;101340.35;107537;1254;97870;-61
2023/09/21 00:51:16;;;;;;;14.40;6.70;;;;;;;15.09;78.68;101339.02;107625;1254;98369;-64
2023/09/21 00:53:46;;;;;;;10.30;5.60;;;;;;;15.05;79.06;101338.45;107648;1255;112062;-64
2023/09/21 00:56:18;;;;;;;11.90;5.90;;;;;;;15.00;79.09;101338.00;107597;1252;110010;-63
2023/09/21 00:58:53;;;;;;;14.40;6.30;;;;;;;14.98;79.03;101335.67;107560;1255;108524;-64
2023/09/21 01:01:27;;;;;;;14.30;6.60;;;;;;;14.96;79.25;101337.69;107554;1254;97695;-63
2023/09/21 01:03:59;;;;;;;15.40;6.60;;;;;;;14.95;79.35;101338.69;107527;1254;97908;-61
2023/09/21 01:06:28;;;;;;;10.20;5.90;;;;;;;14.94;79.07;101336.64;107588;1251;110591;-63
2023/09/21 01:08:57;;;;;;;12.80;6.00;;;;;;;14.91;79.05;101332.61;107615;1254;109051;-64
2023/09/21 01:11:26;;;;;;;9.60;6.30;;;;;;;14.87;79.00;101332.63;107639;1255;106207;-63
2023/09/21 01:13:54;;;;;;;10.50;6.30;;;;;;;14.81;78.84;101333.54;107633;1254;98607;-63
2023/09/21 01:16:23;;;;;;;14.00;6.20;;;;;;;14.77;78.93;101330.32;107515;1257;98366;-64
2023/09/21 01:18:52;;;;;;;12.40;6.10;;;;;;;14.77;79.04;101332.56;107404;1259;111983;-63
2023/09/21 01:21:37;;;;;;;14.90;6.40;;;;;;;14.77;79.18;101331.99;107534;1254;108733;-62
2023/09/21 01:24:05;;;;;;;;;;;;;;;14.77;79.18;101329.63;107607;1255;106857;-62
2023/09/21 01:26:34;;;;;;;9.50;6.00;;;;;;;14.75;79.10;101323.75;107525;1256;97697;-63
2023/09/21 01:29:03;;;;;;;10.30;6.40;;;;;;;14.71;78.96;101322.77;107582;1254;97854;-63
2023/09/21 01:31:32;;;;;;;18.50;6.40;;;;;;;14.69;79.02;101323.71;107643;1256;111446;-63
2023/09/21 01:34:03;;;;;;;12.30;6.70;;;;;;;14.66;79.15;101324.31;107598;1256;108699;-63
2023/09/21 01:36:33;;;;;;;13.00;5.80;;;;;;;14.64;79.13;101322.88;107525;1254;108297;-63
2023/09/21 01:39:09;;;;;;;9.60;6.00;;;;;;;14.63;79.08;101316.46;107501;1254;98040;-63
2023/09/21 01:41:37;;;;;;;12.10;5.60;;;;;;;14.62;79.01;101314.05;107556;1254;98373;-63
2023/09/21 01:44:07;;;;;;;12.30;6.00;;;;;;;14.59;78.86;101312.91;107579;1254;111758;-63
2023/09/21 01:46:35;;;;;;;13.10;6.70;;;;;;;14.55;78.99;101312.71;107562;1254;109138;-62
2023/09/21 01:49:05;;;;;;;13.30;6.10;;;;;;;14.53;78.81;101311.52;107553;1256;108522;-63
2023/09/21 01:51:37;;;;;;;14.00;6.10;;;;;;;14.50;78.89;101311.92;107603;1254;97851;-63
2023/09/21 01:54:07;;;;;;;11.40;5.90;;;;;;;14.50;79.01;101312.70;107526;1254;97765;-63
2023/09/21 01:56:35;;;;;;;21.80;6.80;;;;;;;14.51;79.14;101312.81;107595;1257;111450;-62
2023/09/21 01:59:05;;;;;;;11.00;5.90;;;;;;;14.52;79.19;101313.58;107594;1253;109139;-63
2023/09/21 02:01:34;;;;;;;14.20;6.00;;;;;;;14.53;79.32;101311.14;107438;1255;108524;-63
2023/09/21 02:04:02;;;;;;;14.70;6.10;;;;;;;14.54;79.21;101311.04;107570;1254;97858;-62
2023/09/21 02:06:31;;;;;;;11.70;6.70;;;;;;;14.55;79.18;101312.92;107629;1256;98446;-62
2023/09/21 02:09:03;;;;;;;18.40;6.20;;;;;;;14.54;79.02;101316.44;107579;1256;111857;-63
2023/09/21 02:11:34;;;;;;;10.70;5.70;;;;;;;14.52;79.04;101318.20;107594;1256;108705;-64
2023/09/21 02:14:02;;;;;;;13.90;5.70;;;;;;;14.51;78.89;101321.61;107562;1254;108162;-60
2023/09/21 02:16:31;;;;;;;16.40;6.00;;;;;;;14.49;78.75;101317.62;107588;1254;97823;-63
2023/09/21 02:19:00;;;;;;;13.70;6.90;;;;;;;14.46;78.76;101324.42;107653;1257;97831;-64
2023/09/21 02:21:29;;;;;;;13.50;6.00;;;;;;;14.42;78.75;101326.25;107586;1254;111903;-64
2023/09/21 02:24:00;;;;;;;14.00;6.30;;;;;;;14.39;78.78;101328.35;107604;1256;108317;-62
2023/09/21 02:26:30;;;;;;;12.50;6.50;;;;;;;14.36;78.83;101329.94;107552;1255;108277;-63
2023/09/21 02:29:00;;;;;;;20.60;7.00;;;;;;;14.31;78.80;101332.14;107556;1254;97837;-63
2023/09/21 02:31:29;;;;;;;10.80;6.80;;;;;;;14.28;78.85;101328.36;107569;1254;97816;-63
2023/09/21 02:33:58;;;;;;;10.50;6.10;;;;;;;14.25;78.79;101326.81;107568;1255;112356;-63
2023/09/21 02:36:26;;;;;;;10.70;6.40;;;;;;;14.21;78.87;101322.25;107579;1257;109870;-63
2023/09/21 02:38:55;;;;;;;12.40;5.90;;;;;;;14.19;78.73;101321.06;107505;1257;108744;-63
2023/09/21 02:41:23;;;;;;;9.70;6.60;;;;;;;14.18;78.98;101316.14;107579;1254;97828;-63
2023/09/21 02:43:53;;;;;;;11.30;6.30;;;;;;;14.17;79.06;101315.79;107476;1254;97771;-63
2023/09/21 02:46:22;;;;;;;12.90;6.80;;;;;;;14.17;79.16;101315.52;107529;1254;112092;-63
2023/09/21 02:48:51;;;;;;;10.40;6.00;;;;;;;14.14;79.21;101311.96;107593;1254;109865;-62
2023/09/21 02:51:20;;;;;;;9.40;6.20;;;;;;;14.13;79.23;101316.08;107550;1254;108230;-62
2023/09/21 02:53:49;;;;;;;12.60;5.40;;;;;;;14.10;79.39;101317.23;107492;1256;97759;-63
2023/09/21 02:56:20;;;;;;;7.60;5.90;;;;;;;14.08;79.44;101315.93;107547;1256;97710;-63
2023/09/21 02:58:49;;;;;;;15.90;6.50;;;;;;;14.08;79.49;101314.16;107553;1254;111150;-62
2023/09/21 03:01:20;;;;;;;14.10;7.20;;;;;;;14.08;79.83;101314.48;107588;1254;109064;-62
2023/09/21 03:03:49;;;;;;;12.30;6.10;;;;;;;14.07;79.93;101318.36;107554;1256;107960;-62
2023/09/21 03:06:20;;;;;;;10.60;6.60;;;;;;;14.07;79.92;101322.21;107570;1255;99267;-63
2023/09/21 03:08:48;;;;;;;15.90;7.50;;;;;;;14.06;79.90;101327.14;107567;1251;97740;-62
2023/09/21 03:11:17;;;;;;;12.00;6.50;;;;;;;14.04;80.04;101326.20;107599;1254;110744;-64
2023/09/21 03:13:45;;;;;;;13.20;7.10;;;;;;;14.01;80.36;101323.88;107577;1255;109416;-62
2023/09/21 03:16:17;;;;;;;13.40;6.30;;;;;;;13.93;81.15;101328.18;107606;1255;108336;-62
2023/09/21 03:18:46;;;;;;;13.50;5.80;;;;;;;13.86;81.18;101329.89;107578;1254;97837;-63
2023/09/21 03:21:15;;;;;;;10.70;6.00;;;;;;;13.82;81.01;101331.39;107493;1254;97734;-63
2023/09/21 03:23:47;;;;;;;13.50;6.10;;;;;;;13.80;80.90;101332.30;107559;1255;111827;-64
2023/09/21 03:26:18;;;;;;;10.50;5.70;;;;;;;13.79;80.76;101335.08;107652;1251;109793;-62
2023/09/21 03:28:48;;;;;;;11.80;6.90;;;;;;;13.81;80.90;101333.65;107500;1254;107830;-63
2023/09/21 03:31:18;;;;;;;10.30;6.10;;;;;;;13.84;80.99;101333.35;107451;1254;97788;-62
2023/09/21 03:33:47;;;;;;;7.90;5.70;;;;;;;13.86;80.79;101332.60;107573;1253;97723;-62
2023/09/21 03:36:16;;;;;;;19.90;8.30;;;;;;;13.87;80.88;101328.95;107661;1254;111463;-62
2023/09/21 03:38:47;;;;;;;14.30;6.30;;;;;;;13.87;80.75;101331.98;107579;1253;109821;-63
2023/09/21 03:41:15;;;;;;;9.50;6.20;;;;;;;13.89;80.86;101329.45;107515;1257;107163;-62
2023/09/21 03:43:44;;;;;;;19.70;6.30;;;;;;;13.91;80.80;101328.23;107425;1251;97830;-63
2023/09/21 03:46:12;;;;;;;10.70;6.40;;;;;;;13.92;80.70;101329.50;107608;1257;97911;-63
2023/09/21 03:48:41;;;;;;;11.10;6.10;;;;;;;13.96;80.74;101332.64;107587;1254;111466;-62
2023/09/21 03:51:10;;;;;;;13.60;7.00;;;;;;;13.99;80.83;101332.17;107546;1251;109497;-63
2023/09/21 03:53:39;;;;;;;14.00;7.00;;;;;;;14.02;80.89;101331.34;107579;1254;108144;-63
2023/09/21 03:56:07;;;;;;;9.80;6.20;;;;;;;14.05;80.86;101331.89;107607;1251;97885;-63
2023/09/21 03:58:36;;;;;;;21.80;6.80;;;;;;;14.10;80.71;101332.38;107614;1252;98363;-62
2023/09/21 04:01:09;;;;;;;18.30;7.00;;;;;;;14.14;80.81;101326.81;107518;1254;111396;-62
2023/09/21 04:03:37;;;;;;;23.30;8.10;;;;;;;14.18;80.58;101325.14;107679;1254;110066;-62
2023/09/21 04:06:06;;;;;;;22.50;9.90;;;;;;;14.20;80.59;101328.35;107536;1254;108729;-63
2023/09/21 04:08:35;;;;;;;27.70;10.70;;;;;;;14.23;80.63;101327.85;107426;1257;97934;-62
2023/09/21 04:11:03;;;;;;;30.60;11.20;;;;;;;14.26;80.70;101330.50;107634;1251;97710;-62
2023/09/21 04:13:31;;;;;;;20.10;9.80;;;;;;;14.29;80.76;101332.60;107634;1252;112243;-63
2023/09/21 04:16:04;;;;;;;28.30;10.30;;;;;;;14.32;81.05;101334.42;107589;1256;109660;-62
2023/09/21 04:18:33;;;;;;;27.90;10.50;;;;;;;14.36;81.09;101331.66;107590;1257;107639;-63
2023/09/21 04:21:06;;;;;;;26.30;12.40;;;;;;;14.39;81.01;101330.30;107587;1251;97844;-64
2023/09/21 04:23:48;;;;;;;32.60;11.40;;;;;;;14.43;81.04;101331.77;107507;1254;98415;-64
2023/09/21 04:26:17;;;;;;;23.40;12.10;;;;;;;14.45;80.96;101333.58;107553;1251;112547;-64
2023/09/21 04:28:49;;;;;;;35.40;12.10;;;;;;;14.48;81.04;101338.56;107624;1254;110076;-63
2023/09/21 04:31:19;;;;;;;20.20;11.10;;;;;;;14.51;81.14;101340.73;107585;1254;107662;-67
2023/09/21 04:33:49;;;;;;;21.00;11.00;;;;;;;14.55;81.11;101341.98;107515;1253;98543;-64
2023/09/21 04:36:17;;;;;;;28.10;12.60;;;;;;;14.61;81.17;101341.46;107442;1251;98938;-64
2023/09/21 04:38:48;;;;;;;20.40;12.50;;;;;;;14.65;81.09;101337.24;107561;1251;111802;-64
2023/09/21 04:41:17;;;;;;;24.00;11.80;;;;;;;14.70;80.90;101342.51;107614;1251;110785;-64
2023/09/21 04:43:48;;;;;;;22.60;12.20;;;;;;;14.75;80.95;101337.39;107603;1254;107751;-64
2023/09/21 04:46:17;;;;;;;32.70;12.10;;;;;;;14.80;80.94;101339.22;107531;1257;97886;-63
2023/09/21 04:48:46;;;;;;;30.70;12.80;;;;;;;14.85;80.88;101336.02;107557;1251;99014;-63
2023/09/21 04:51:16;;;;;;;23.50;10.60;;;;;;;14.90;80.93;101335.98;107665;1252;114261;-64
2023/09/21 04:53:45;;;;;;;26.90;11.40;;;;;;;14.94;80.99;101336.77;107563;1254;109793;-64
2023/09/21 04:56:14;;;;;;;24.50;10.50;;;;;;;14.98;80.76;101338.38;107545;1253;108646;-64
2023/09/21 04:58:42;;;;;;;21.00;10.40;;;;;;;15.03;80.80;101341.34;107577;1251;97805;-64
2023/09/21 05:01:11;;;;;;;19.90;11.30;;;;;;;15.09;80.74;101341.52;107551;1253;97969;-64
2023/09/21 05:03:41;;;;;;;24.90;11.00;;;;;;;15.13;80.80;101339.09;107528;1254;111355;-63
2023/09/21 05:06:10;;;;;;;19.80;12.80;;;;;;;15.18;80.77;101336.40;107586;1254;110077;-63
2023/09/21 05:08:39;;;;;;;20.90;11.70;;;;;;;15.24;80.80;101336.59;107502;1253;108157;-63
2023/09/21 05:11:08;;;;;;;31.80;22.90;;;;;;;15.27;80.85;101337.33;107532;1257;97915;-63
2023/09/21 05:13:37;;;;;;;23.60;13.20;;;;;;;15.29;80.66;101338.09;107674;1254;98327;-64
2023/09/21 05:16:06;;;;;;;27.10;13.00;;;;;;;15.32;80.77;101338.86;107572;1253;111756;-64
2023/09/21 05:18:35;;;;;;;25.80;13.00;;;;;;;15.36;80.96;101341.53;107623;1254;108272;-65
2023/09/21 05:21:04;;;;;;;26.50;13.20;;;;;;;15.41;81.01;101342.66;107575;1256;108147;-64
2023/09/21 05:23:33;;;;;;;23.50;12.40;;;;;;;15.45;80.89;101342.24;107536;1256;97848;-65
2023/09/21 05:26:02;;;;;;;24.70;12.70;;;;;;;15.50;81.00;101342.71;107603;1254;99391;-64
2023/09/21 05:28:31;;;;;;;24.90;12.70;;;;;;;15.55;80.77;101346.71;107542;1256;112177;-64
2023/09/21 05:31:00;;;;;;;30.10;12.70;;;;;;;15.59;81.02;101341.79;107555;1254;110178;-64
2023/09/21 05:33:28;;;;;;;32.70;13.10;;;;;;;15.63;80.91;101348.80;107549;1251;107548;-62
2023/09/21 05:36:04;;;;;;;19.50;12.10;;;;;;;15.68;81.06;101346.83;107627;1256;97819;-64
2023/09/21 05:38:33;;;;;;;24.90;12.40;;;;;;;15.75;81.19;101347.90;107579;1251;97800;-64
2023/09/21 05:41:02;;;;;;;24.90;12.70;;;;;;;15.83;81.41;101348.60;107712;1251;111295;-63
2023/09/21 05:43:31;;;;;;;29.70;12.90;;;;;;;15.90;81.28;101348.03;107574;1254;111048;-63
2023/09/21 05:45:59;;;;;;;21.90;13.10;;;;;;;16.00;81.43;101347.08;107541;1254;108065;-64
2023/09/21 05:48:27;;;;;;;26.90;12.40;;;;;;;16.09;81.36;101347.35;107569;1251;97940;-65
2023/09/21 05:50:56;;;;;;;28.50;13.00;;;;;;;16.20;81.41;101351.19;107592;1256;97906;-64
2023/09/21 05:53:25;;;;;;;21.50;12.10;;;;;;;16.31;81.37;101348.77;107567;1254;111807;-64
2023/09/21 05:55:53;;;;;;;22.00;13.30;;;;;;;16.46;81.47;101354.48;107559;1254;109424;-64
2023/09/21 05:58:21;;;;;;;21.00;12.90;;;;;;;16.61;81.41;101350.05;107601;1254;107559;-65
2023/09/21 06:00:51;;;;;;;20.80;13.00;;;;;;;16.77;81.28;101350.50;107562;1251;97842;-62
2023/09/21 06:03:19;;;;;;;26.40;13.30;;;;;;;16.93;81.09;101349.70;107543;1254;97742;-63
2023/09/21 06:05:48;;;;;;;29.20;13.50;;;;;;;17.08;80.63;101349.05;107567;1253;110775;-64
2023/09/21 06:08:16;;;;;;;27.80;13.40;;;;;;;17.23;80.57;101343.11;107560;1254;109979;-63
2023/09/21 06:10:45;;;;;;;29.40;13.70;;;;;;;17.42;80.58;101346.48;107574;1251;108272;-64
2023/09/21 06:13:13;;;;;;;28.40;14.50;;;;;;;17.57;80.28;101346.16;107584;1253;97724;-66
2023/09/21 06:15:48;;;;;;;27.60;13.20;;;;;;;17.76;80.07;101345.20;107596;1254;98348;-64
2023/09/21 06:18:17;;;;;;;25.50;13.20;;;;;;;17.96;79.94;101345.20;107612;1254;111997;-64
2023/09/21 06:20:46;;;;;;;30.50;13.00;;;;;;;18.14;79.50;101347.76;107558;1254;110400;-62
2023/09/21 06:23:17;;;;;;;17.90;12.00;;;;;;;18.30;79.07;101346.16;107552;1256;108865;-64
2023/09/21 06:25:46;;;;;;;24.50;11.10;;;;;;;18.46;78.53;101348.65;107591;1254;97797;-64
2023/09/21 06:28:15;;;;;;;19.10;12.00;;;;;;;18.62;78.44;101343.63;107601;1253;97813;-64
2023/09/21 06:30:46;;;;;;;25.50;11.60;;;;;;;18.77;78.01;101341.49;107588;1253;110869;-64
2023/09/21 06:33:15;;;;;;;19.70;11.40;;;;;;;18.90;77.64;101338.39;107591;1252;112316;-63
2023/09/21 06:35:44;;;;;;;22.90;11.60;;;;;;;19.01;77.18;101336.85;107608;1254;108814;-66
2023/09/21 06:38:12;;;;;;;18.80;10.70;;;;;;;19.10;76.82;101338.33;107569;1253;97810;-65
2023/09/21 06:40:44;;;;;;;19.40;11.20;;;;;;;19.17;76.52;101339.33;107574;1254;98445;-64
2023/09/21 06:43:12;;;;;;;19.50;10.10;;;;;;;19.23;76.17;101338.13;107643;1253;112822;-65
2023/09/21 06:45:41;;;;;;;22.50;11.70;;;;;;;19.28;76.04;101334.59;107610;1253;109743;-65
2023/09/21 06:48:11;;;;;;;30.00;11.50;;;;;;;19.36;76.04;101332.89;107576;1256;107373;-64
2023/09/21 06:50:40;;;;;;;23.00;10.70;;;;;;;19.43;75.82;101337.05;107607;1251;97690;-63
2023/09/21 06:53:08;;;;;;;24.40;10.30;;;;;;;19.47;75.41;101336.61;107576;1252;98392;-65
2023/09/21 06:55:38;;;;;;;29.80;10.30;;;;;;;19.48;75.09;101333.91;107660;1256;111291;-64
2023/09/21 06:58:08;;;;;;;23.20;10.70;;;;;;;19.44;74.66;101331.13;107610;1253;110020;-64
2023/09/21 07:00:37;;;;;;;22.90;10.20;;;;;;;19.41;74.49;101332.02;107526;1253;108375;-64
2023/09/21 07:03:05;;;;;;;25.60;10.00;;;;;;;19.40;74.80;101331.71;107606;1254;97714;-64
2023/09/21 07:05:34;;;;;;;20.70;10.30;;;;;;;19.42;74.81;101332.06;107506;1253;97726;-64
2023/09/21 07:08:03;;;;;;;21.00;8.90;;;;;;;19.45;74.71;101331.55;107625;1251;111830;-63
2023/09/21 07:10:32;;;;;;;25.00;9.10;;;;;;;19.48;74.49;101331.55;107504;1251;109724;-64
2023/09/21 07:13:01;;;;;;;30.00;9.80;;;;;;;19.51;74.41;101332.07;107524;1253;107201;-64
2023/09/21 07:15:29;;;;;;;23.30;8.80;;;;;;;19.55;74.29;101331.02;107573;1255;98065;-65
2023/09/21 07:17:58;;;;;;;16.30;8.30;;;;;;;19.61;74.13;101332.67;107626;1253;98340;-65
2023/09/21 07:20:26;;;;;;;20.20;8.50;;;;;;;19.65;73.95;101333.68;107620;1254;112193;-64
2023/09/21 07:22:56;;;;;;;16.10;8.70;;;;;;;19.71;73.83;101330.45;107633;1253;109505;-63
2023/09/21 07:25:25;;;;;;;20.60;9.40;;;;;;;19.79;73.76;101330.83;107643;1254;107339;-65
2023/09/21 07:27:54;;;;;;;20.20;10.10;;;;;;;19.88;73.68;101327.91;107645;1252;97929;-62
2023/09/21 07:30:28;;;;;;;27.00;10.00;;;;;;;19.96;72.89;101320.77;107658;1251;97815;-64
2023/09/21 07:32:57;;;;;;;20.80;10.70;;;;;;;20.05;72.46;101324.32;107618;1256;112082;-63
2023/09/21 07:35:26;;;;;;;22.60;11.40;;;;;;;20.14;72.09;101328.36;107620;1251;110427;-64
2023/09/21 07:37:55;;;;;;;26.50;11.10;;;;;;;20.22;72.23;101324.77;107562;1254;107885;-64
2023/09/21 07:40:25;;;;;;;18.40;11.80;;;;;;;20.33;71.56;101325.48;107596;1253;97918;-65
2023/09/21 07:42:54;;;;;;;16.80;10.30;;;;;;;20.42;71.20;101322.20;107620;1256;98357;-65
2023/09/21 07:45:22;;;;;;;22.20;10.40;;;;;;;20.53;71.40;101318.06;107568;1254;112238;-63
2023/09/21 07:47:52;;;;;;;13.20;9.70;;;;;;;20.69;70.86;101315.22;107586;1252;109983;-63
2023/09/21 07:50:23;;;;;;;13.90;9.80;;;;;;;20.83;70.87;101312.21;107587;1255;107850;-64
2023/09/21 07:52:56;;;;;;;18.00;8.90;;;;;;;21.00;70.18;101311.11;107568;1251;97831;-64
2023/09/21 07:55:24;;;;;;;18.30;8.40;;;;;;;21.11;69.89;101304.46;107680;1251;97817;-63
2023/09/21 07:57:53;;;;;;;13.00;7.90;;;;;;;21.22;69.49;101299.06;107661;1251;111870;-64
2023/09/21 08:00:21;;;;;;;15.70;7.90;;;;;;;21.32;69.05;101296.40;107596;1251;109863;-65
2023/09/21 08:02:50;;;;;;;12.10;7.20;;;;;;;21.43;68.49;101300.04;107648;1253;108556;-64
2023/09/21 08:05:19;;;;;;;17.00;7.00;;;;;;;21.56;67.59;101300.80;107636;1251;97850;-65
2023/09/21 08:07:49;;;;;;;16.40;6.40;;;;;;;21.69;67.17;101300.19;107668;1251;99540;-67
2023/09/21 08:10:20;;;;;;;12.10;6.60;;;;;;;21.84;66.76;101298.70;107606;1251;111985;-64
2023/09/21 08:12:49;;;;;;;12.60;5.80;;;;;;;21.98;66.73;101300.25;107657;1254;109792;-64
2023/09/21 08:15:19;;;;;;;10.50;6.60;;;;;;;22.10;66.22;101298.06;107590;1254;107771;-65
2023/09/21 08:17:47;;;;;;;12.10;6.20;;;;;;;22.21;65.13;101301.80;107658;1253;97857;-65
2023/09/21 08:20:16;;;;;;;10.90;5.50;;;;;;;22.32;64.16;101295.63;107650;1251;97860;-64
2023/09/21 08:22:47;;;;;;;8.60;5.30;;;;;;;22.45;64.48;101296.40;107658;1251;111099;-64
2023/09/21 08:25:16;;;;;;;15.20;5.80;;;;;;;22.55;63.87;101296.17;107544;1251;108565;-65
2023/09/21 08:27:46;;;;;;;9.10;5.30;;;;;;;22.67;63.90;101295.67;107643;1251;107526;-66
2023/09/21 08:30:15;;;;;;;11.80;5.80;;;;;;;22.80;63.81;101294.13;107575;1253;97845;-64
2023/09/21 08:32:44;;;;;;;11.70;6.80;;;;;;;22.96;63.22;101291.61;107625;1254;97870;-65
2023/09/21 08:35:16;;;;;;;13.40;6.30;;;;;;;23.11;62.60;101288.36;107636;1254;111044;-63
2023/09/21 08:37:45;;;;;;;6.10;5.30;;;;;;;23.23;61.37;101286.73;107619;1251;108702;-64
2023/09/21 08:40:14;;;;;;;14.10;6.10;;;;;;;23.35;61.08;101286.37;107590;1254;108569;-64
2023/09/21 08:42:44;;;;;;;10.50;5.70;;;;;;;23.40;60.53;101284.39;107617;1254;97704;-64
2023/09/21 08:45:14;;;;;;;10.30;5.70;;;;;;;23.52;60.89;101282.34;107584;1252;97837;-63
2023/09/21 08:47:44;;;;;;;9.10;6.60;;;;;;;23.70;59.51;101280.61;107632;1251;110856;-65
2023/09/21 08:50:13;;;;;;;9.20;5.40;;;;;;;23.88;59.38;101278.10;107634;1251;109693;-65
2023/09/21 08:52:45;;;;;;;11.90;5.80;;;;;;;24.06;59.09;101276.38;107634;1254;108530;-63
2023/09/21 08:55:16;;;;;;;12.70;5.40;;;;;;;24.18;58.49;101272.71;107619;1254;97832;-65
2023/09/21 08:57:45;;;;;;;8.00;5.00;;;;;;;24.42;57.25;101273.08;107594;1254;97729;-62
2023/09/21 09:00:16;;;;;;;11.10;5.10;;;;;;;24.67;56.88;101264.29;107684;1254;111543;-64
2023/09/21 09:02:46;;;;;;;10.80;4.70;;;;;;;25.03;57.49;101264.54;107612;1251;108958;-65
2023/09/21 09:05:15;;;;;;;12.70;4.50;;;;;;;25.38;54.93;101255.64;107579;1252;108101;-64
2023/09/21 09:07:43;;;;;;;8.60;4.70;;;;;;;25.71;54.95;101255.13;107610;1254;97851;-65
2023/09/21 09:10:14;;;;;;;6.60;4.80;;;;;;;26.06;54.19;101251.41;107594;1251;97834;-62
2023/09/21 09:12:43;;;;;;;8.90;5.00;;;;;;;26.40;50.71;101257.67;107566;1254;112447;-64
2023/09/21 09:15:13;;;;;;;12.30;4.50;;;;;;;26.77;51.12;101252.12;107645;1251;109346;-64
2023/09/21 09:17:43;;;;;;;8.50;4.10;;;;;;;27.38;50.11;101253.21;107578;1254;107135;-65
2023/09/21 09:20:12;;;;;;;7.50;4.30;;;;;;;28.09;47.73;101248.13;107565;1254;97839;-65
2023/09/21 09:22:40;;;;;;;7.50;3.80;;;;;;;28.77;47.69;101249.95;107588;1254;98815;-64
2023/09/21 09:25:12;;;;;;;12.80;3.70;;;;;;;29.47;47.20;101242.95;107613;1251;111421;-65
2023/09/21 09:27:42;;;;;;;5.80;3.60;;;;;;;30.24;45.60;101242.43;107601;1253;109387;-63
2023/09/21 09:30:12;;;;;;;4.10;3.10;;;;;;;30.95;44.31;101243.57;107583;1254;106964;-65
2023/09/21 09:32:41;;;;;;;7.70;3.50;;;;;;;31.60;42.80;101241.05;107580;1251;97816;-65
2023/09/21 09:35:13;;;;;;;10.10;3.20;;;;;;;32.24;41.65;101237.25;107629;1251;97842;-64
2023/09/21 09:37:45;;;;;;;7.00;3.70;;;;;;;32.66;41.63;101234.20;107622;1251;112032;-64
2023/09/21 09:40:24;;;;;;;11.00;3.40;;;;;;;33.26;39.95;101228.57;107618;1251;109249;-65
2023/09/21 09:42:53;;;;;;;5.80;3.10;;;;;;;33.77;38.23;101224.74;107614;1255;107730;-65
2023/09/21 09:45:25;;;;;;;7.20;3.30;;;;;;;34.28;37.60;101226.23;107634;1254;97838;-65
2023/09/21 09:48:01;;;;;;;6.90;3.10;;;;;;;34.59;35.95;101222.42;107555;1251;98553;-65
2023/09/21 09:50:33;;;;;;;6.40;2.80;;;;;;;35.11;35.60;101225.56;107631;1251;112511;-64
2023/09/21 09:53:05;;;;;;;4.60;2.80;;;;;;;34.93;35.81;101219.91;107603;1254;109534;-64
2023/09/21 09:55:36;;;;;;;7.70;2.50;;;;;;;34.66;34.37;101218.58;107599;1256;106917;-64
2023/09/21 09:58:08;;;;;;;3.50;2.30;;;;;;;35.06;34.01;101215.04;107602;1252;97877;-64
2023/09/21 10:00:39;;;;;;;8.30;2.40;;;;;;;35.06;33.71;101212.69;107679;1252;97905;-65
2023/09/21 10:03:09;;;;;;;5.80;2.10;;;;;;;34.95;33.78;101209.75;107652;1251;110761;-65
2023/09/21 10:05:39;;;;;;;9.60;2.80;;;;;;;34.52;33.44;101203.62;107603;1254;110202;-64
2023/09/21 10:08:08;;;;;;;6.10;2.80;;;;;;;33.97;34.54;101199.71;107317;1254;391030;-65
2023/09/21 10:10:57;;;;;;;8.40;3.00;;;;;;;33.61;35.11;101195.98;107596;1254;97889;-66
2023/09/21 10:13:27;;;;;;;9.30;2.40;;;;;;;33.59;35.32;101193.98;107606;1254;97831;-66
2023/09/21 10:16:01;;;;;;;3.40;2.30;;;;;;;33.78;34.91;101189.32;107631;1251;112060;-66
2023/09/21 10:18:35;;;;;;;6.70;2.70;;;;;;;33.61;34.61;101190.63;107609;1251;109771;-70
2023/09/21 10:21:13;;;;;;;5.00;1.90;;;;;;;33.78;34.79;101184.74;107629;1251;107822;-65
2023/09/21 10:24:16;;;;;;;7.20;2.30;;;;;;;34.70;33.39;101180.39;107577;1251;97908;-66
2023/09/21 10:26:49;;;;;;;5.40;2.30;;;;;;;35.54;32.93;101175.70;107244;1253;97823;-65
2023/09/21 10:29:20;;;;;;;2.30;1.70;;;;;;;36.04;32.34;101173.54;107599;1251;111101;-65
2023/09/21 10:32:00;;;;;;;6.40;2.10;;;;;;;35.87;31.81;101173.95;107602;1251;109779;-65
2023/09/21 10:34:31;;;;;;;5.90;2.40;;;;;;;35.99;31.91;101170.40;107627;1255;107949;-64
2023/09/21 10:37:10;;;;;;;4.30;1.80;;;;;;;35.66;31.34;101165.66;107626;1251;97954;-63
2023/09/21 10:39:39;;;;;;;7.00;2.00;;;;;;;35.52;31.79;101165.92;107595;1253;97752;-65
2023/09/21 10:42:08;;;;;;;4.70;2.00;;;;;;;35.16;31.83;101162.17;107578;1254;110694;-64
2023/09/21 10:45:00;;;;;;;2.90;2.40;;;;;;;34.82;31.57;101160.54;107605;1254;110631;-64
2023/09/21 10:47:33;;;;;;;5.40;2.30;;;;;;;34.46;32.24;101155.85;107564;1254;108274;-64
2023/09/21 10:50:10;;;;;;;7.10;2.00;;;;;;;34.60;32.16;101154.30;107617;1253;97716;-64
2023/09/21 10:52:41;;;;;;;5.50;2.20;;;;;;;35.32;32.11;101151.73;107594;1251;97799;-64
2023/09/21 10:55:13;;;;;;;2.50;1.90;;;;;;;36.05;30.81;101146.73;107595;1256;111565;-65
2023/09/21 10:57:42;;;;;;;2.50;2.10;;;;;;;36.79;30.69;101138.41;107623;1252;109856;-65
2023/09/21 11:00:16;;;;;;;4.00;2.00;;;;;;;37.25;29.63;101137.10;107642;1256;106801;-65
2023/09/21 11:02:46;;;;;;;4.80;2.00;;;;;;;37.03;29.43;101134.23;107617;1254;97823;-66
2023/09/21 11:05:16;;;;;;;6.10;2.10;;;;;;;36.75;29.80;101136.19;107557;1254;97918;-66
2023/09/21 11:07:47;;;;;;;7.60;2.40;;;;;;;36.46;30.11;101132.45;107644;1254;111412;-65
2023/09/21 11:10:16;;;;;;;6.40;1.90;;;;;;;35.99;29.76;101134.71;107596;1253;109532;-64
2023/09/21 11:12:45;;;;;;;3.70;2.10;;;;;;;35.35;30.31;101137.16;107603;1254;106946;-65
2023/09/21 11:15:18;;;;;;;8.70;2.60;;;;;;;34.93;31.00;101137.98;107635;1253;97990;-63
2023/09/21 11:17:47;;;;;;;4.90;2.20;;;;;;;34.54;31.19;101133.40;107635;1253;97709;-65